sensor_id;sensor_type;location;lat;lon;timestamp;P1;durP1;ratioP1;P2;durP2;ratioP2
13048;SDS011;6591;51.446;5.404;2022-08-01T00:02:02;9.63;;;5.25;;
13048;SDS011;6591;51.446;5.404;2022-08-01T00:04:31;7.80;;;4.75;;
13048;SDS011;6591;51.446;5.404;2022-08-01T00:07:00;5.80;;;5.18;;
13048;SDS011;6591;51.446;5.404;2022-08-01T00:09:27;7.43;;;5.00;;
13048;SDS011;6591;51.446;5.404;2022-08-01T00:11:53;7.47;;;5.10;;
13048;SDS011;6591;51.446;5.404;2022-08-01T00:14:26;6.38;;;5.20;;
13048;SDS011;6591;51.446;5.404;2022-08-01T00:16:58;6.22;;;5.57;;
13048;SDS011;6591;51.446;5.404;2022-08-01T00:19:34;7.03;;;5.35;;
13048;SDS011;6591;51.446;5.404;2022-08-01T00:22:00;7.88;;;5.43;;
13048;SDS011;6591;51.446;5.404;2022-08-01T00:24:28;6.32;;;5.47;;
13048;SDS011;6591;51.446;5.404;2022-08-01T00:26:54;7.47;;;6.07;;
13048;SDS011;6591;51.446;5.404;2022-08-01T00:29:22;7.38;;;6.20;;
13048;SDS011;6591;51.446;5.404;2022-08-01T00:32:14;7.68;;;5.50;;
13048;SDS011;6591;51.446;5.404;2022-08-01T00:34:41;8.38;;;5.97;;
13048;SDS011;6591;51.446;5.404;2022-08-01T00:37:09;6.40;;;5.70;;
13048;SDS011;6591;51.446;5.404;2022-08-01T00:39:41;8.48;;;6.47;;
13048;SDS011;6591;51.446;5.404;2022-08-01T00:42:09;9.07;;;6.85;;
13048;SDS011;6591;51.446;5.404;2022-08-01T00:44:39;10.25;;;6.80;;
13048;SDS011;6591;51.446;5.404;2022-08-01T00:47:07;10.25;;;6.57;;
13048;SDS011;6591;51.446;5.404;2022-08-01T00:49:35;9.65;;;7.03;;
13048;SDS011;6591;51.446;5.404;2022-08-01T00:52:02;7.80;;;6.82;;
13048;SDS011;6591;51.446;5.404;2022-08-01T00:54:36;8.20;;;7.07;;
13048;SDS011;6591;51.446;5.404;2022-08-01T00:57:03;8.55;;;6.05;;
13048;SDS011;6591;51.446;5.404;2022-08-01T00:59:35;8.23;;;6.10;;
13048;SDS011;6591;51.446;5.404;2022-08-01T01:02:07;10.43;;;7.47;;
13048;SDS011;6591;51.446;5.404;2022-08-01T01:04:45;8.00;;;7.18;;
13048;SDS011;6591;51.446;5.404;2022-08-01T01:09:49;12.63;;;8.02;;
13048;SDS011;6591;51.446;5.404;2022-08-01T01:12:47;9.25;;;7.30;;
13048;SDS011;6591;51.446;5.404;2022-08-01T01:15:33;10.48;;;7.70;;
13048;SDS011;6591;51.446;5.404;2022-08-01T01:18:19;12.25;;;8.10;;
13048;SDS011;6591;51.446;5.404;2022-08-01T01:24:02;10.25;;;8.80;;
13048;SDS011;6591;51.446;5.404;2022-08-01T01:27:21;13.88;;;8.57;;
13048;SDS011;6591;51.446;5.404;2022-08-01T01:30:23;8.38;;;7.55;;
13048;SDS011;6591;51.446;5.404;2022-08-01T01:32:54;11.88;;;9.15;;
13048;SDS011;6591;51.446;5.404;2022-08-01T01:35:32;13.18;;;10.20;;
13048;SDS011;6591;51.446;5.404;2022-08-01T01:38:07;14.48;;;11.25;;
13048;SDS011;6591;51.446;5.404;2022-08-01T01:40:47;12.15;;;10.55;;
13048;SDS011;6591;51.446;5.404;2022-08-01T01:43:18;12.20;;;10.27;;
13048;SDS011;6591;51.446;5.404;2022-08-01T01:45:58;12.05;;;9.90;;
13048;SDS011;6591;51.446;5.404;2022-08-01T01:48:28;14.73;;;10.48;;
13048;SDS011;6591;51.446;5.404;2022-08-01T01:50:57;13.80;;;10.07;;
13048;SDS011;6591;51.446;5.404;2022-08-01T01:53:26;13.45;;;10.32;;
13048;SDS011;6591;51.446;5.404;2022-08-01T01:55:56;11.48;;;9.90;;
13048;SDS011;6591;51.446;5.404;2022-08-01T01:58:26;13.07;;;10.30;;
13048;SDS011;6591;51.446;5.404;2022-08-01T02:00:56;10.70;;;9.57;;
13048;SDS011;6591;51.446;5.404;2022-08-01T02:03:30;13.20;;;10.38;;
13048;SDS011;6591;51.446;5.404;2022-08-01T02:06:01;12.88;;;10.50;;
13048;SDS011;6591;51.446;5.404;2022-08-01T02:08:29;13.57;;;9.98;;
13048;SDS011;6591;51.446;5.404;2022-08-01T02:11:00;12.40;;;11.10;;
13048;SDS011;6591;51.446;5.404;2022-08-01T02:13:59;12.45;;;10.38;;
13048;SDS011;6591;51.446;5.404;2022-08-01T02:16:33;11.32;;;9.98;;
13048;SDS011;6591;51.446;5.404;2022-08-01T02:19:03;13.18;;;10.57;;
13048;SDS011;6591;51.446;5.404;2022-08-01T02:21:30;11.95;;;10.30;;
13048;SDS011;6591;51.446;5.404;2022-08-01T02:24:22;12.27;;;9.95;;
13048;SDS011;6591;51.446;5.404;2022-08-01T02:27:01;12.15;;;9.75;;
13048;SDS011;6591;51.446;5.404;2022-08-01T02:29:50;13.18;;;9.15;;
13048;SDS011;6591;51.446;5.404;2022-08-01T02:32:31;11.75;;;9.45;;
13048;SDS011;6591;51.446;5.404;2022-08-01T02:35:09;12.38;;;10.25;;
13048;SDS011;6591;51.446;5.404;2022-08-01T02:37:51;14.77;;;10.38;;
13048;SDS011;6591;51.446;5.404;2022-08-01T02:40:29;12.85;;;10.25;;
13048;SDS011;6591;51.446;5.404;2022-08-01T02:43:01;13.15;;;9.75;;
13048;SDS011;6591;51.446;5.404;2022-08-01T02:45:39;12.90;;;10.75;;
13048;SDS011;6591;51.446;5.404;2022-08-01T02:48:14;12.48;;;10.20;;
13048;SDS011;6591;51.446;5.404;2022-08-01T02:50:47;11.88;;;10.20;;
13048;SDS011;6591;51.446;5.404;2022-08-01T02:53:20;11.50;;;9.73;;
13048;SDS011;6591;51.446;5.404;2022-08-01T02:56:12;14.07;;;9.80;;
13048;SDS011;6591;51.446;5.404;2022-08-01T02:58:43;13.13;;;10.38;;
13048;SDS011;6591;51.446;5.404;2022-08-01T03:01:18;12.10;;;9.63;;
13048;SDS011;6591;51.446;5.404;2022-08-01T03:03:47;12.98;;;10.35;;
13048;SDS011;6591;51.446;5.404;2022-08-01T03:06:15;12.05;;;9.88;;
13048;SDS011;6591;51.446;5.404;2022-08-01T03:08:43;11.57;;;10.18;;
13048;SDS011;6591;51.446;5.404;2022-08-01T03:11:12;12.60;;;10.60;;
13048;SDS011;6591;51.446;5.404;2022-08-01T03:13:41;12.00;;;10.32;;
13048;SDS011;6591;51.446;5.404;2022-08-01T03:16:11;14.75;;;10.40;;
13048;SDS011;6591;51.446;5.404;2022-08-01T03:18:42;13.25;;;10.07;;
13048;SDS011;6591;51.446;5.404;2022-08-01T03:21:12;14.65;;;11.05;;
13048;SDS011;6591;51.446;5.404;2022-08-01T03:23:40;11.55;;;10.10;;
13048;SDS011;6591;51.446;5.404;2022-08-01T03:26:12;12.70;;;10.27;;
13048;SDS011;6591;51.446;5.404;2022-08-01T03:28:40;12.80;;;10.00;;
13048;SDS011;6591;51.446;5.404;2022-08-01T03:31:13;16.50;;;11.35;;
13048;SDS011;6591;51.446;5.404;2022-08-01T03:33:41;12.23;;;9.85;;
13048;SDS011;6591;51.446;5.404;2022-08-01T03:36:09;12.90;;;10.30;;
13048;SDS011;6591;51.446;5.404;2022-08-01T03:38:39;13.93;;;10.50;;
13048;SDS011;6591;51.446;5.404;2022-08-01T03:41:11;13.13;;;10.00;;
13048;SDS011;6591;51.446;5.404;2022-08-01T03:43:48;13.93;;;10.13;;
13048;SDS011;6591;51.446;5.404;2022-08-01T03:46:26;12.02;;;10.18;;
13048;SDS011;6591;51.446;5.404;2022-08-01T03:49:07;12.60;;;10.57;;
13048;SDS011;6591;51.446;5.404;2022-08-01T03:51:44;12.85;;;9.95;;
13048;SDS011;6591;51.446;5.404;2022-08-01T03:54:16;10.82;;;9.55;;
13048;SDS011;6591;51.446;5.404;2022-08-01T03:56:49;13.00;;;10.35;;
13048;SDS011;6591;51.446;5.404;2022-08-01T03:59:18;11.98;;;9.93;;
13048;SDS011;6591;51.446;5.404;2022-08-01T04:01:47;9.60;;;8.20;;
13048;SDS011;6591;51.446;5.404;2022-08-01T04:04:15;11.43;;;9.05;;
13048;SDS011;6591;51.446;5.404;2022-08-01T04:06:47;12.60;;;9.63;;
13048;SDS011;6591;51.446;5.404;2022-08-01T04:09:19;14.75;;;10.23;;
13048;SDS011;6591;51.446;5.404;2022-08-01T04:11:48;11.90;;;9.98;;
13048;SDS011;6591;51.446;5.404;2022-08-01T04:14:15;10.98;;;9.57;;
13048;SDS011;6591;51.446;5.404;2022-08-01T04:16:42;14.40;;;10.80;;
13048;SDS011;6591;51.446;5.404;2022-08-01T04:19:14;12.80;;;9.95;;
13048;SDS011;6591;51.446;5.404;2022-08-01T04:21:41;12.00;;;9.80;;
13048;SDS011;6591;51.446;5.404;2022-08-01T04:24:10;12.98;;;10.30;;
13048;SDS011;6591;51.446;5.404;2022-08-01T04:26:45;13.48;;;9.07;;
13048;SDS011;6591;51.446;5.404;2022-08-01T04:29:14;12.02;;;9.73;;
13048;SDS011;6591;51.446;5.404;2022-08-01T04:31:45;11.57;;;9.43;;
13048;SDS011;6591;51.446;5.404;2022-08-01T04:34:16;13.10;;;10.68;;
13048;SDS011;6591;51.446;5.404;2022-08-01T04:36:50;12.02;;;10.32;;
13048;SDS011;6591;51.446;5.404;2022-08-01T04:39:20;13.35;;;10.90;;
13048;SDS011;6591;51.446;5.404;2022-08-01T04:42:00;12.98;;;9.93;;
13048;SDS011;6591;51.446;5.404;2022-08-01T04:44:32;15.88;;;11.02;;
13048;SDS011;6591;51.446;5.404;2022-08-01T04:47:27;12.77;;;10.02;;
13048;SDS011;6591;51.446;5.404;2022-08-01T04:49:56;13.85;;;10.98;;
13048;SDS011;6591;51.446;5.404;2022-08-01T04:52:34;13.65;;;11.10;;
13048;SDS011;6591;51.446;5.404;2022-08-01T04:55:04;16.00;;;11.18;;
13048;SDS011;6591;51.446;5.404;2022-08-01T04:57:34;14.15;;;10.65;;
13048;SDS011;6591;51.446;5.404;2022-08-01T05:00:07;13.50;;;11.35;;
13048;SDS011;6591;51.446;5.404;2022-08-01T05:02:35;12.73;;;10.35;;
13048;SDS011;6591;51.446;5.404;2022-08-01T05:05:02;13.63;;;10.88;;
13048;SDS011;6591;51.446;5.404;2022-08-01T05:07:32;13.07;;;10.43;;
13048;SDS011;6591;51.446;5.404;2022-08-01T05:10:10;15.27;;;11.25;;
13048;SDS011;6591;51.446;5.404;2022-08-01T05:12:38;14.48;;;11.00;;
13048;SDS011;6591;51.446;5.404;2022-08-01T05:15:05;14.40;;;10.65;;
13048;SDS011;6591;51.446;5.404;2022-08-01T05:17:40;13.75;;;10.63;;
13048;SDS011;6591;51.446;5.404;2022-08-01T05:20:08;14.52;;;10.32;;
13048;SDS011;6591;51.446;5.404;2022-08-01T05:22:39;14.70;;;10.63;;
13048;SDS011;6591;51.446;5.404;2022-08-01T05:25:06;13.40;;;10.57;;
13048;SDS011;6591;51.446;5.404;2022-08-01T05:27:34;13.30;;;10.57;;
13048;SDS011;6591;51.446;5.404;2022-08-01T05:30:07;13.23;;;10.68;;
13048;SDS011;6591;51.446;5.404;2022-08-01T05:32:36;17.05;;;11.55;;
13048;SDS011;6591;51.446;5.404;2022-08-01T05:35:05;12.85;;;10.18;;
13048;SDS011;6591;51.446;5.404;2022-08-01T05:37:33;12.50;;;10.55;;
13048;SDS011;6591;51.446;5.404;2022-08-01T05:40:01;12.20;;;9.68;;
13048;SDS011;6591;51.446;5.404;2022-08-01T05:42:28;12.35;;;9.18;;
13048;SDS011;6591;51.446;5.404;2022-08-01T05:44:56;11.30;;;8.43;;
13048;SDS011;6591;51.446;5.404;2022-08-01T05:47:23;11.38;;;8.75;;
13048;SDS011;6591;51.446;5.404;2022-08-01T05:49:50;11.15;;;7.53;;
13048;SDS011;6591;51.446;5.404;2022-08-01T05:52:17;8.02;;;7.20;;
13048;SDS011;6591;51.446;5.404;2022-08-01T05:54:45;8.57;;;6.85;;
13048;SDS011;6591;51.446;5.404;2022-08-01T05:57:12;7.47;;;6.45;;
13048;SDS011;6591;51.446;5.404;2022-08-01T05:59:40;7.18;;;5.65;;
13048;SDS011;6591;51.446;5.404;2022-08-01T06:02:10;8.90;;;6.35;;
13048;SDS011;6591;51.446;5.404;2022-08-01T06:04:37;8.40;;;6.65;;
13048;SDS011;6591;51.446;5.404;2022-08-01T06:07:06;10.30;;;7.00;;
13048;SDS011;6591;51.446;5.404;2022-08-01T06:09:34;9.73;;;7.75;;
13048;SDS011;6591;51.446;5.404;2022-08-01T06:12:04;9.60;;;7.63;;
13048;SDS011;6591;51.446;5.404;2022-08-01T06:14:31;8.95;;;7.45;;
13048;SDS011;6591;51.446;5.404;2022-08-01T06:16:59;9.05;;;7.53;;
13048;SDS011;6591;51.446;5.404;2022-08-01T06:19:25;11.55;;;8.10;;
13048;SDS011;6591;51.446;5.404;2022-08-01T06:21:53;12.18;;;8.13;;
13048;SDS011;6591;51.446;5.404;2022-08-01T06:24:20;8.88;;;7.68;;
13048;SDS011;6591;51.446;5.404;2022-08-01T06:26:49;9.10;;;8.02;;
13048;SDS011;6591;51.446;5.404;2022-08-01T06:29:16;5.90;;;5.30;;
13048;SDS011;6591;51.446;5.404;2022-08-01T06:31:43;7.82;;;6.38;;
13048;SDS011;6591;51.446;5.404;2022-08-01T06:34:10;5.80;;;4.40;;
13048;SDS011;6591;51.446;5.404;2022-08-01T06:36:37;5.07;;;4.10;;
13048;SDS011;6591;51.446;5.404;2022-08-01T06:39:07;5.05;;;3.78;;
13048;SDS011;6591;51.446;5.404;2022-08-01T06:41:34;3.78;;;2.95;;
13048;SDS011;6591;51.446;5.404;2022-08-01T06:44:02;4.93;;;3.17;;
13048;SDS011;6591;51.446;5.404;2022-08-01T06:46:31;3.83;;;2.85;;
13048;SDS011;6591;51.446;5.404;2022-08-01T06:49:03;2.53;;;2.30;;
13048;SDS011;6591;51.446;5.404;2022-08-01T06:51:30;3.70;;;2.72;;
13048;SDS011;6591;51.446;5.404;2022-08-01T06:53:57;2.63;;;2.10;;
13048;SDS011;6591;51.446;5.404;2022-08-01T06:56:24;3.53;;;2.28;;
13048;SDS011;6591;51.446;5.404;2022-08-01T06:58:52;2.40;;;2.15;;
13048;SDS011;6591;51.446;5.404;2022-08-01T07:01:22;3.40;;;2.28;;
13048;SDS011;6591;51.446;5.404;2022-08-01T07:03:49;3.28;;;2.95;;
13048;SDS011;6591;51.446;5.404;2022-08-01T07:06:22;3.22;;;2.88;;
13048;SDS011;6591;51.446;5.404;2022-08-01T07:08:51;4.70;;;2.83;;
13048;SDS011;6591;51.446;5.404;2022-08-01T07:11:20;2.65;;;2.45;;
13048;SDS011;6591;51.446;5.404;2022-08-01T07:13:48;2.30;;;2.10;;
13048;SDS011;6591;51.446;5.404;2022-08-01T07:16:19;3.50;;;2.17;;
13048;SDS011;6591;51.446;5.404;2022-08-01T07:18:46;3.70;;;2.22;;
13048;SDS011;6591;51.446;5.404;2022-08-01T07:21:13;2.00;;;1.80;;
13048;SDS011;6591;51.446;5.404;2022-08-01T07:24:07;3.10;;;1.98;;
13048;SDS011;6591;51.446;5.404;2022-08-01T07:26:41;3.10;;;2.45;;
13048;SDS011;6591;51.446;5.404;2022-08-01T07:29:21;2.38;;;2.13;;
13048;SDS011;6591;51.446;5.404;2022-08-01T07:31:55;3.92;;;2.20;;
13048;SDS011;6591;51.446;5.404;2022-08-01T07:34:23;5.75;;;2.15;;
13048;SDS011;6591;51.446;5.404;2022-08-01T07:36:52;2.38;;;2.17;;
13048;SDS011;6591;51.446;5.404;2022-08-01T07:39:19;2.35;;;2.15;;
13048;SDS011;6591;51.446;5.404;2022-08-01T07:41:52;2.60;;;2.05;;
13048;SDS011;6591;51.446;5.404;2022-08-01T07:44:33;2.72;;;2.10;;
13048;SDS011;6591;51.446;5.404;2022-08-01T07:47:06;2.17;;;1.70;;
13048;SDS011;6591;51.446;5.404;2022-08-01T07:49:34;1.95;;;1.63;;
13048;SDS011;6591;51.446;5.404;2022-08-01T07:52:06;1.65;;;1.55;;
13048;SDS011;6591;51.446;5.404;2022-08-01T07:54:34;2.28;;;1.75;;
13048;SDS011;6591;51.446;5.404;2022-08-01T07:57:03;1.95;;;1.63;;
13048;SDS011;6591;51.446;5.404;2022-08-01T07:59:30;2.90;;;1.65;;
13048;SDS011;6591;51.446;5.404;2022-08-01T08:01:57;2.00;;;1.80;;
13048;SDS011;6591;51.446;5.404;2022-08-01T08:04:25;1.88;;;1.77;;
13048;SDS011;6591;51.446;5.404;2022-08-01T08:06:53;1.90;;;1.70;;
13048;SDS011;6591;51.446;5.404;2022-08-01T08:09:21;2.20;;;1.85;;
13048;SDS011;6591;51.446;5.404;2022-08-01T08:11:48;1.73;;;1.60;;
13048;SDS011;6591;51.446;5.404;2022-08-01T08:14:15;1.80;;;1.70;;
13048;SDS011;6591;51.446;5.404;2022-08-01T08:16:43;2.00;;;1.90;;
13048;SDS011;6591;51.446;5.404;2022-08-01T08:19:11;1.92;;;1.63;;
13048;SDS011;6591;51.446;5.404;2022-08-01T08:21:39;3.08;;;1.58;;
13048;SDS011;6591;51.446;5.404;2022-08-01T08:24:11;1.67;;;1.55;;
13048;SDS011;6591;51.446;5.404;2022-08-01T08:26:59;2.20;;;1.63;;
13048;SDS011;6591;51.446;5.404;2022-08-01T08:29:29;1.70;;;1.60;;
13048;SDS011;6591;51.446;5.404;2022-08-01T08:34:54;1.33;;;1.23;;
13048;SDS011;6591;51.446;5.404;2022-08-01T08:37:21;1.48;;;1.10;;
13048;SDS011;6591;51.446;5.404;2022-08-01T08:39:48;1.40;;;1.30;;
13048;SDS011;6591;51.446;5.404;2022-08-01T08:42:15;1.02;;;1.00;;
13048;SDS011;6591;51.446;5.404;2022-08-01T08:44:42;1.33;;;1.23;;
13048;SDS011;6591;51.446;5.404;2022-08-01T08:47:10;1.20;;;1.10;;
13048;SDS011;6591;51.446;5.404;2022-08-01T08:49:51;1.40;;;1.30;;
13048;SDS011;6591;51.446;5.404;2022-08-01T08:52:21;0.93;;;0.93;;
13048;SDS011;6591;51.446;5.404;2022-08-01T08:54:53;1.00;;;1.00;;
13048;SDS011;6591;51.446;5.404;2022-08-01T08:57:21;1.00;;;1.00;;
13048;SDS011;6591;51.446;5.404;2022-08-01T08:59:49;1.40;;;1.30;;
13048;SDS011;6591;51.446;5.404;2022-08-01T09:02:20;1.10;;;0.98;;
13048;SDS011;6591;51.446;5.404;2022-08-01T09:04:48;1.15;;;1.08;;
13048;SDS011;6591;51.446;5.404;2022-08-01T09:07:16;1.50;;;1.20;;
13048;SDS011;6591;51.446;5.404;2022-08-01T09:09:44;1.25;;;1.15;;
13048;SDS011;6591;51.446;5.404;2022-08-01T09:12:17;1.75;;;1.13;;
13048;SDS011;6591;51.446;5.404;2022-08-01T09:14:45;1.30;;;1.20;;
13048;SDS011;6591;51.446;5.404;2022-08-01T09:17:14;1.25;;;1.13;;
13048;SDS011;6591;51.446;5.404;2022-08-01T09:19:46;1.20;;;1.10;;
13048;SDS011;6591;51.446;5.404;2022-08-01T09:22:24;2.30;;;1.27;;
13048;SDS011;6591;51.446;5.404;2022-08-01T09:25:03;1.20;;;1.10;;
13048;SDS011;6591;51.446;5.404;2022-08-01T09:27:37;1.30;;;1.20;;
13048;SDS011;6591;51.446;5.404;2022-08-01T09:30:14;1.00;;;1.00;;
13048;SDS011;6591;51.446;5.404;2022-08-01T09:32:59;1.05;;;1.05;;
13048;SDS011;6591;51.446;5.404;2022-08-01T09:35:36;1.30;;;1.20;;
13048;SDS011;6591;51.446;5.404;2022-08-01T09:38:21;1.00;;;1.00;;
13048;SDS011;6591;51.446;5.404;2022-08-01T09:40:57;1.10;;;1.00;;
13048;SDS011;6591;51.446;5.404;2022-08-01T09:43:29;1.40;;;1.30;;
13048;SDS011;6591;51.446;5.404;2022-08-01T09:45:58;1.50;;;1.40;;
13048;SDS011;6591;51.446;5.404;2022-08-01T09:52:14;1.02;;;1.02;;
13048;SDS011;6591;51.446;5.404;2022-08-01T09:54:55;1.20;;;1.15;;
13048;SDS011;6591;51.446;5.404;2022-08-01T09:57:32;1.35;;;1.20;;
13048;SDS011;6591;51.446;5.404;2022-08-01T10:00:03;1.27;;;1.17;;
13048;SDS011;6591;51.446;5.404;2022-08-01T10:02:38;1.27;;;1.13;;
13048;SDS011;6591;51.446;5.404;2022-08-01T10:05:13;0.80;;;0.80;;
13048;SDS011;6591;51.446;5.404;2022-08-01T10:07:56;1.20;;;1.10;;
13048;SDS011;6591;51.446;5.404;2022-08-01T10:10:35;1.40;;;1.30;;
13048;SDS011;6591;51.446;5.404;2022-08-01T10:13:02;1.27;;;1.17;;
13048;SDS011;6591;51.446;5.404;2022-08-01T10:15:35;1.25;;;1.10;;
13048;SDS011;6591;51.446;5.404;2022-08-01T10:18:04;1.52;;;1.08;;
13048;SDS011;6591;51.446;5.404;2022-08-01T10:20:51;1.02;;;1.02;;
13048;SDS011;6591;51.446;5.404;2022-08-01T10:23:27;0.90;;;0.90;;
13048;SDS011;6591;51.446;5.404;2022-08-01T10:26:06;0.88;;;0.88;;
13048;SDS011;6591;51.446;5.404;2022-08-01T10:28:37;1.63;;;1.00;;
13048;SDS011;6591;51.446;5.404;2022-08-01T10:31:10;0.90;;;0.90;;
13048;SDS011;6591;51.446;5.404;2022-08-01T10:33:40;0.98;;;0.75;;
13048;SDS011;6591;51.446;5.404;2022-08-01T10:36:20;1.00;;;0.98;;
13048;SDS011;6591;51.446;5.404;2022-08-01T10:38:51;0.90;;;0.90;;
13048;SDS011;6591;51.446;5.404;2022-08-01T10:41:20;1.58;;;0.90;;
13048;SDS011;6591;51.446;5.404;2022-08-01T10:43:49;1.75;;;0.95;;
13048;SDS011;6591;51.446;5.404;2022-08-01T10:46:18;0.80;;;0.80;;
13048;SDS011;6591;51.446;5.404;2022-08-01T10:48:57;1.20;;;1.10;;
13048;SDS011;6591;51.446;5.404;2022-08-01T10:51:40;1.30;;;1.10;;
13048;SDS011;6591;51.446;5.404;2022-08-01T10:54:20;1.30;;;1.20;;
13048;SDS011;6591;51.446;5.404;2022-08-01T10:56:59;1.50;;;1.40;;
13048;SDS011;6591;51.446;5.404;2022-08-01T10:59:27;1.40;;;1.23;;
13048;SDS011;6591;51.446;5.404;2022-08-01T11:02:26;1.38;;;1.27;;
13048;SDS011;6591;51.446;5.404;2022-08-01T11:05:02;1.40;;;1.20;;
13048;SDS011;6591;51.446;5.404;2022-08-01T11:07:46;1.40;;;1.27;;
13048;SDS011;6591;51.446;5.404;2022-08-01T11:10:27;1.20;;;1.10;;
13048;SDS011;6591;51.446;5.404;2022-08-01T11:13:12;0.98;;;0.90;;
13048;SDS011;6591;51.446;5.404;2022-08-01T11:15:40;1.27;;;1.10;;
13048;SDS011;6591;51.446;5.404;2022-08-01T11:18:29;1.20;;;1.10;;
13048;SDS011;6591;51.446;5.404;2022-08-01T11:21:01;0.95;;;0.95;;
13048;SDS011;6591;51.446;5.404;2022-08-01T11:23:49;1.23;;;1.10;;
13048;SDS011;6591;51.446;5.404;2022-08-01T11:26:20;2.10;;;1.00;;
13048;SDS011;6591;51.446;5.404;2022-08-01T11:29:12;0.95;;;0.95;;
13048;SDS011;6591;51.446;5.404;2022-08-01T11:31:47;1.95;;;0.93;;
13048;SDS011;6591;51.446;5.404;2022-08-01T11:34:15;1.52;;;1.20;;
13048;SDS011;6591;51.446;5.404;2022-08-01T11:36:42;1.08;;;0.98;;
13048;SDS011;6591;51.446;5.404;2022-08-01T11:39:28;1.15;;;1.05;;
13048;SDS011;6591;51.446;5.404;2022-08-01T11:41:57;1.00;;;1.00;;
13048;SDS011;6591;51.446;5.404;2022-08-01T11:44:48;1.35;;;1.02;;
13048;SDS011;6591;51.446;5.404;2022-08-01T11:51:02;1.20;;;1.10;;
13048;SDS011;6591;51.446;5.404;2022-08-01T11:53:29;2.58;;;0.95;;
13048;SDS011;6591;51.446;5.404;2022-08-01T11:55:58;0.80;;;0.80;;
13048;SDS011;6591;51.446;5.404;2022-08-01T11:58:29;2.00;;;1.15;;
13048;SDS011;6591;51.446;5.404;2022-08-01T12:00:57;1.15;;;0.90;;
13048;SDS011;6591;51.446;5.404;2022-08-01T12:03:27;1.33;;;1.10;;
13048;SDS011;6591;51.446;5.404;2022-08-01T12:05:59;1.23;;;1.08;;
13048;SDS011;6591;51.446;5.404;2022-08-01T12:08:30;1.15;;;0.98;;
13048;SDS011;6591;51.446;5.404;2022-08-01T12:11:01;0.90;;;0.90;;
13048;SDS011;6591;51.446;5.404;2022-08-01T12:13:39;2.03;;;1.10;;
13048;SDS011;6591;51.446;5.404;2022-08-01T12:16:10;0.95;;;0.82;;
13048;SDS011;6591;51.446;5.404;2022-08-01T12:18:38;1.88;;;0.85;;
13048;SDS011;6591;51.446;5.404;2022-08-01T12:21:08;1.17;;;1.00;;
13048;SDS011;6591;51.446;5.404;2022-08-01T12:23:36;1.60;;;1.05;;
13048;SDS011;6591;51.446;5.404;2022-08-01T12:26:04;2.65;;;1.00;;
13048;SDS011;6591;51.446;5.404;2022-08-01T12:28:38;1.50;;;1.08;;
13048;SDS011;6591;51.446;5.404;2022-08-01T12:31:06;1.48;;;1.15;;
13048;SDS011;6591;51.446;5.404;2022-08-01T12:33:33;1.85;;;1.02;;
13048;SDS011;6591;51.446;5.404;2022-08-01T12:36:01;1.80;;;1.15;;
13048;SDS011;6591;51.446;5.404;2022-08-01T12:38:28;1.88;;;1.50;;
13048;SDS011;6591;51.446;5.404;2022-08-01T12:40:58;1.80;;;1.00;;
13048;SDS011;6591;51.446;5.404;2022-08-01T12:43:25;1.48;;;1.02;;
13048;SDS011;6591;51.446;5.404;2022-08-01T12:45:59;1.55;;;1.10;;
13048;SDS011;6591;51.446;5.404;2022-08-01T12:48:27;0.80;;;0.80;;
13048;SDS011;6591;51.446;5.404;2022-08-01T12:50:57;1.35;;;1.00;;
13048;SDS011;6591;51.446;5.404;2022-08-01T12:53:27;1.48;;;1.10;;
13048;SDS011;6591;51.446;5.404;2022-08-01T12:56:09;1.23;;;1.00;;
13048;SDS011;6591;51.446;5.404;2022-08-01T12:58:39;1.00;;;0.90;;
13048;SDS011;6591;51.446;5.404;2022-08-01T13:01:10;4.07;;;1.10;;
13048;SDS011;6591;51.446;5.404;2022-08-01T13:03:40;2.08;;;1.27;;
13048;SDS011;6591;51.446;5.404;2022-08-01T13:06:23;2.17;;;1.15;;
13048;SDS011;6591;51.446;5.404;2022-08-01T13:08:55;2.35;;;1.17;;
13048;SDS011;6591;51.446;5.404;2022-08-01T13:11:33;4.72;;;1.10;;
13048;SDS011;6591;51.446;5.404;2022-08-01T13:14:00;1.08;;;0.93;;
13048;SDS011;6591;51.446;5.404;2022-08-01T13:16:28;1.48;;;1.20;;
13048;SDS011;6591;51.446;5.404;2022-08-01T13:19:17;1.67;;;1.20;;
13048;SDS011;6591;51.446;5.404;2022-08-01T13:21:54;4.82;;;1.45;;
13048;SDS011;6591;51.446;5.404;2022-08-01T13:24:25;1.40;;;1.20;;
13048;SDS011;6591;51.446;5.404;2022-08-01T13:26:55;2.05;;;1.08;;
13048;SDS011;6591;51.446;5.404;2022-08-01T13:29:31;2.38;;;1.60;;
13048;SDS011;6591;51.446;5.404;2022-08-01T13:32:13;1.90;;;1.20;;
13048;SDS011;6591;51.446;5.404;2022-08-01T13:35:07;1.73;;;1.45;;
13048;SDS011;6591;51.446;5.404;2022-08-01T13:37:39;1.48;;;1.10;;
13048;SDS011;6591;51.446;5.404;2022-08-01T13:40:09;3.92;;;1.80;;
13048;SDS011;6591;51.446;5.404;2022-08-01T13:42:38;2.40;;;1.40;;
13048;SDS011;6591;51.446;5.404;2022-08-01T13:45:05;2.55;;;1.10;;
13048;SDS011;6591;51.446;5.404;2022-08-01T13:47:40;1.98;;;1.45;;
13048;SDS011;6591;51.446;5.404;2022-08-01T13:50:31;2.28;;;1.50;;
13048;SDS011;6591;51.446;5.404;2022-08-01T13:52:59;3.10;;;1.90;;
13048;SDS011;6591;51.446;5.404;2022-08-01T13:55:26;2.10;;;1.27;;
13048;SDS011;6591;51.446;5.404;2022-08-01T13:58:00;2.38;;;1.52;;
13048;SDS011;6591;51.446;5.404;2022-08-01T14:00:31;2.05;;;1.35;;
13048;SDS011;6591;51.446;5.404;2022-08-01T14:02:58;3.35;;;1.60;;
13048;SDS011;6591;51.446;5.404;2022-08-01T14:05:25;2.40;;;1.50;;
13048;SDS011;6591;51.446;5.404;2022-08-01T14:07:52;2.42;;;1.77;;
13048;SDS011;6591;51.446;5.404;2022-08-01T14:10:23;1.80;;;1.70;;
13048;SDS011;6591;51.446;5.404;2022-08-01T14:12:51;2.33;;;1.73;;
13048;SDS011;6591;51.446;5.404;2022-08-01T14:15:23;3.05;;;1.95;;
13048;SDS011;6591;51.446;5.404;2022-08-01T14:18:05;2.45;;;1.50;;
13048;SDS011;6591;51.446;5.404;2022-08-01T14:20:35;3.08;;;1.52;;
13048;SDS011;6591;51.446;5.404;2022-08-01T14:23:04;2.42;;;1.42;;
13048;SDS011;6591;51.446;5.404;2022-08-01T14:25:38;3.33;;;1.50;;
13048;SDS011;6591;51.446;5.404;2022-08-01T14:28:31;2.95;;;1.60;;
13048;SDS011;6591;51.446;5.404;2022-08-01T14:31:02;2.30;;;1.55;;
13048;SDS011;6591;51.446;5.404;2022-08-01T14:33:36;1.33;;;1.15;;
13048;SDS011;6591;51.446;5.404;2022-08-01T14:36:03;4.28;;;1.67;;
13048;SDS011;6591;51.446;5.404;2022-08-01T14:38:50;2.80;;;1.27;;
13048;SDS011;6591;51.446;5.404;2022-08-01T14:41:25;2.40;;;1.40;;
13048;SDS011;6591;51.446;5.404;2022-08-01T14:43:56;2.38;;;1.42;;
13048;SDS011;6591;51.446;5.404;2022-08-01T14:46:24;3.42;;;1.27;;
13048;SDS011;6591;51.446;5.404;2022-08-01T14:48:51;2.53;;;1.40;;
13048;SDS011;6591;51.446;5.404;2022-08-01T14:51:18;5.40;;;1.50;;
13048;SDS011;6591;51.446;5.404;2022-08-01T14:53:45;1.85;;;1.20;;
13048;SDS011;6591;51.446;5.404;2022-08-01T14:56:19;3.22;;;1.73;;
13048;SDS011;6591;51.446;5.404;2022-08-01T14:58:46;2.95;;;1.65;;
13048;SDS011;6591;51.446;5.404;2022-08-01T15:01:13;4.40;;;1.50;;
13048;SDS011;6591;51.446;5.404;2022-08-01T15:03:41;2.60;;;1.55;;
13048;SDS011;6591;51.446;5.404;2022-08-01T15:06:12;2.58;;;1.40;;
13048;SDS011;6591;51.446;5.404;2022-08-01T15:08:40;2.47;;;1.30;;
13048;SDS011;6591;51.446;5.404;2022-08-01T15:11:12;4.95;;;1.52;;
13048;SDS011;6591;51.446;5.404;2022-08-01T15:13:39;2.70;;;1.40;;
13048;SDS011;6591;51.446;5.404;2022-08-01T15:16:08;2.25;;;1.52;;
13048;SDS011;6591;51.446;5.404;2022-08-01T15:18:37;2.38;;;1.40;;
13048;SDS011;6591;51.446;5.404;2022-08-01T15:21:04;2.72;;;1.40;;
13048;SDS011;6591;51.446;5.404;2022-08-01T15:23:32;2.92;;;1.35;;
13048;SDS011;6591;51.446;5.404;2022-08-01T15:25:59;7.07;;;1.58;;
13048;SDS011;6591;51.446;5.404;2022-08-01T15:28:26;3.45;;;1.67;;
13048;SDS011;6591;51.446;5.404;2022-08-01T15:30:53;2.80;;;1.50;;
13048;SDS011;6591;51.446;5.404;2022-08-01T15:33:20;1.98;;;1.30;;
13048;SDS011;6591;51.446;5.404;2022-08-01T15:35:48;3.00;;;1.35;;
13048;SDS011;6591;51.446;5.404;2022-08-01T15:38:18;2.00;;;1.23;;
13048;SDS011;6591;51.446;5.404;2022-08-01T15:40:45;3.00;;;1.15;;
13048;SDS011;6591;51.446;5.404;2022-08-01T15:43:13;2.33;;;1.27;;